Cascade, MT (59421)

5:35 AM MST on December 06, 2016 (GMT -0700)
Trout Montana Fly Shop, Cascade, MT | | Change Station
Active Advisory: Wind Chill Advisory Active Notice: Local Storm Report

Elev 3376 ft 47.27 °N, 111.70 °W | Updated 2 minutes ago

Overcast
Overcast
7.3 °F
Feels Like 0 °F
N
4.0
Wind Variable Wind from North
Gusts 6.0 mph

Today
High -- | Low -- °F
--% Chance of Precip.
Yesterday
High -- | Low -- °F
Precip. -- in
Pressure 30.38 in
Visibility 10.0 miles
Clouds Overcast 6500 ft
Windchill 0 °F
Dew Point 4 °F
Humidity 84%
Rainfall 0.00 in
Snow Depth Not available.
7:59 AM 4:36 PM
Waxing Crescent, 41% visible
METAR KGTF 061153Z 02007KT 10SM OVC065 M16/M19 A3012 RMK AO2 SLP286 T11611189 11150 21183 53005
Pressure 30.38 in
Visibility 10.0 miles
Clouds Overcast 6500 ft
Windchill 0 °F
Dew Point 4 °F
Humidity 84%
Rainfall 0.00 in
Snow Depth Not available.
7:59 AM 4:36 PM
Waxing Crescent, 41% visible
METAR KGTF 061153Z 02007KT 10SM OVC065 M16/M19 A3012 RMK AO2 SLP286 T11611189 11150 21183 53005

10-Day Weather Forecast

Almanac

Astronomy

Dec. 06, 2016 Rise Set
Actual Time
Civil Twilight
Nautical Twilight
Astronomical Twilight
Moon
Length of Visible Light
Length of Day
Tomorrow will be .
, % of the Moon is Illuminated

Today's Extremes

State Highs State Lows

Community

WunderPhotos

Upload Photos

1,955,936 photos uploaded!

WunderBlog® & News

Nearby

Air Quality

  Air Quality AQ Index Pollutant
Not available.

Snow Depth

Station Depth Elevation

Earthquake Activity

City Distance Mag. Time & Date
Minimum magnitude displayed is 2.5.

Coastal Water Temperatures

Place Temperature

Stations

Nearby Weather Stations

Station Location Temp. Windchill Dew Point Humidity Wind Precip. Elev Updated Type
                   

Watches & Warnings

Wind Chill Advisory
Issued: 2:57 AM MST Dec. 6, 2016 – National Weather Service

... Wind Chill Advisory remains in effect until noon MST today...

* locations... Fairfield... Choteau... White Sulphur Springs...
Stanford... Chinook... Havre... Great Falls... Kings Hill Pass...
Big Sandy... Fort Benton... Flesher Pass... Helena... Lincoln...
MacDonald Pass... Rogers Pass... Lewistown... Lewistown Divide.

* Timing... cold temperatures and light winds will create wind
chill values around 20 below zero this morning.

* Winds... northwest 10 to 15 mph with gusts up to 20 mph.

* Wind chill values... about 15 below to 25 below zero.

* Impacts... frostbite can occur in less than 30 minutes on
exposed skin.

Precautionary/preparedness actions...

A Wind Chill Advisory means that very cold air and winds will
combine to generate low wind chills. This will result in frost
bite and lead to hypothermia if precautions are not taken. If you
must venture outdoors... make sure you wear a hat and gloves.